Time;durP1;ratioP1;P1;durP2;ratioP2;P2;SDS_P1;SDS_P2;PMS_P1;PMS_P2;Temp;Humidity;BMP_temperature;BMP_pressure;BME280_temperature;BME280_humidity;BME280_pressure;Samples;Min_cycle;Max_cycle;Signal;HPM_P1;HPM_P2
2021/09/19 00:02:11;;;;;;;0.50;0.40;;;13.00;99.90;;;;;;5057056;28;20195;-80
2021/09/19 00:04:38;;;;;;;0.50;0.40;;;13.00;99.90;;;;;;5056652;28;20954;-80
2021/09/19 00:07:04;;;;;;;0.50;0.40;;;13.00;99.90;;;;;;5056927;28;20222;-80
2021/09/19 00:09:31;;;;;;;0.50;0.30;;;12.90;99.90;;;;;;5056770;28;20452;-80
2021/09/19 00:11:58;;;;;;;0.50;0.40;;;12.90;99.90;;;;;;5055926;28;20206;-79
2021/09/19 00:14:26;;;;;;;0.50;0.40;;;12.90;99.90;;;;;;5057306;28;20451;-80
2021/09/19 00:16:53;;;;;;;0.50;0.40;;;12.90;99.90;;;;;;5056627;28;20442;-80
2021/09/19 00:19:20;;;;;;;0.50;0.40;;;12.80;99.90;;;;;;5056973;28;20454;-79
2021/09/19 00:21:47;;;;;;;0.50;0.40;;;12.80;99.90;;;;;;5055824;28;20448;-80
2021/09/19 00:24:14;;;;;;;0.50;0.40;;;12.90;99.90;;;;;;5056659;28;20437;-80
2021/09/19 00:26:40;;;;;;;0.50;0.40;;;12.90;99.90;;;;;;5056468;28;20639;-78
2021/09/19 00:29:07;;;;;;;0.50;0.40;;;12.90;99.90;;;;;;5056782;28;20481;-79
2021/09/19 00:31:35;;;;;;;0.50;0.40;;;12.80;99.90;;;;;;5047736;28;20444;-80
2021/09/19 00:34:02;;;;;;;0.50;0.38;;;12.80;99.90;;;;;;5056347;28;20441;-79
2021/09/19 00:36:28;;;;;;;0.50;0.40;;;12.80;99.90;;;;;;5055928;28;20210;-80
2021/09/19 00:38:55;;;;;;;0.50;0.40;;;12.80;99.90;;;;;;5056694;28;20218;-81
2021/09/19 00:41:22;;;;;;;0.50;0.40;;;12.70;99.90;;;;;;5055781;28;20195;-80
2021/09/19 00:43:48;;;;;;;0.50;0.40;;;12.70;99.90;;;;;;5056576;28;20199;-80
2021/09/19 00:46:15;;;;;;;0.50;0.40;;;12.60;99.90;;;;;;5056172;28;20199;-80
2021/09/19 00:48:43;;;;;;;0.50;0.40;;;12.60;99.90;;;;;;5055556;28;20241;-79
2021/09/19 00:51:10;;;;;;;0.50;0.40;;;12.60;99.90;;;;;;5055853;28;20213;-79
2021/09/19 00:53:38;;;;;;;0.50;0.40;;;12.50;99.90;;;;;;5055782;28;20234;-80
2021/09/19 00:56:07;;;;;;;0.50;0.40;;;12.50;99.90;;;;;;5056190;28;20199;-79
2021/09/19 00:58:34;;;;;;;0.50;0.40;;;12.50;99.90;;;;;;5055981;28;20581;-80
2021/09/19 01:01:02;;;;;;;0.50;0.40;;;12.50;99.90;;;;;;5056026;28;20195;-79
2021/09/19 01:03:29;;;;;;;0.50;0.40;;;12.50;99.90;;;;;;5055777;28;20199;-80
2021/09/19 01:05:57;;;;;;;0.50;0.40;;;12.50;99.90;;;;;;5055599;28;20202;-80
2021/09/19 01:08:24;;;;;;;0.50;0.40;;;12.50;99.90;;;;;;5055767;28;20234;-80
2021/09/19 01:10:52;;;;;;;0.68;0.68;;;12.60;99.90;;;;;;5055620;28;20195;-79
2021/09/19 01:13:19;;;;;;;0.50;0.40;;;12.50;99.90;;;;;;5055574;28;20446;-80
2021/09/19 01:15:46;;;;;;;0.50;0.40;;;12.60;99.90;;;;;;5056000;28;20205;-79
2021/09/19 01:18:17;;;;;;;0.50;0.40;;;12.60;99.90;;;;;;5055610;28;20218;-79
2021/09/19 01:20:45;;;;;;;0.50;0.30;;;12.60;99.90;;;;;;5061770;28;20667;-79
2021/09/19 01:23:14;;;;;;;0.50;0.40;;;12.60;99.90;;;;;;5063970;28;20215;-79
2021/09/19 01:25:44;;;;;;;0.50;0.40;;;12.60;99.90;;;;;;5056438;28;20211;-80
2021/09/19 01:28:12;;;;;;;0.50;0.40;;;12.50;99.90;;;;;;5053281;28;20222;-77
2021/09/19 01:30:38;;;;;;;0.50;0.40;;;12.50;99.90;;;;;;5052946;28;20205;-80
2021/09/19 01:33:06;;;;;;;0.50;0.40;;;12.50;99.90;;;;;;5054719;28;20722;-78
2021/09/19 01:35:33;;;;;;;1.00;0.52;;;12.50;99.90;;;;;;5055703;28;20205;-80
2021/09/19 01:38:00;;;;;;;0.85;0.85;;;12.50;99.90;;;;;;5056120;28;20222;-79
2021/09/19 01:40:27;;;;;;;0.50;0.40;;;12.50;99.90;;;;;;5055919;28;20194;-80
2021/09/19 01:42:56;;;;;;;0.50;0.40;;;12.50;99.90;;;;;;5055653;28;20194;-79
2021/09/19 01:45:23;;;;;;;0.50;0.40;;;12.50;99.90;;;;;;5055345;28;20202;-80
2021/09/19 01:47:50;;;;;;;0.52;0.50;;;12.40;99.90;;;;;;5055201;28;20219;-80
2021/09/19 01:50:17;;;;;;;0.50;0.40;;;12.40;99.90;;;;;;5056118;28;20225;-80
2021/09/19 01:52:43;;;;;;;0.50;0.40;;;12.50;99.90;;;;;;5055272;28;20202;-80
2021/09/19 01:55:11;;;;;;;0.50;0.40;;;12.50;99.90;;;;;;5056007;28;20195;-79
2021/09/19 01:57:38;;;;;;;0.50;0.40;;;12.40;99.90;;;;;;5055355;28;20576;-80
2021/09/19 02:00:07;;;;;;;0.50;0.40;;;12.30;99.90;;;;;;5055539;28;20198;-78
2021/09/19 02:02:34;;;;;;;0.50;0.40;;;12.30;99.90;;;;;;5055602;28;20198;-80
2021/09/19 02:05:02;;;;;;;0.50;0.40;;;12.30;99.90;;;;;;5055782;28;20234;-80
2021/09/19 02:07:28;;;;;;;0.50;0.40;;;12.20;99.90;;;;;;5055173;28;20226;-79
2021/09/19 02:09:55;;;;;;;0.50;0.40;;;12.20;99.90;;;;;;5055757;28;20225;-79
2021/09/19 02:12:22;;;;;;;0.50;0.40;;;12.20;99.90;;;;;;5055273;28;20691;-80
2021/09/19 02:14:49;;;;;;;0.50;0.40;;;12.20;99.90;;;;;;5055236;28;20206;-80
2021/09/19 02:17:17;;;;;;;0.50;0.40;;;12.20;99.90;;;;;;5055366;28;20202;-79
2021/09/19 02:19:43;;;;;;;0.50;0.40;;;12.20;99.90;;;;;;5054926;28;20279;-80
2021/09/19 02:22:12;;;;;;;0.50;0.40;;;12.20;99.90;;;;;;5054368;28;20192;-79
2021/09/19 02:24:40;;;;;;;0.50;0.40;;;12.10;99.90;;;;;;5056139;28;20251;-80
2021/09/19 02:27:07;;;;;;;0.50;0.40;;;12.20;99.90;;;;;;5055211;28;20191;-81
2021/09/19 02:29:34;;;;;;;0.50;0.40;;;12.20;99.90;;;;;;5054809;28;20198;-80
2021/09/19 02:32:00;;;;;;;0.50;0.40;;;12.20;99.90;;;;;;5054467;28;20207;-80
2021/09/19 02:34:28;;;;;;;0.50;0.40;;;12.20;99.90;;;;;;5055285;28;20196;-80
2021/09/19 02:36:55;;;;;;;0.50;0.40;;;12.20;99.90;;;;;;5055711;28;20221;-79
2021/09/19 02:39:22;;;;;;;0.50;0.40;;;12.30;99.90;;;;;;5055971;28;20221;-80
2021/09/19 02:41:49;;;;;;;0.60;0.40;;;12.40;99.90;;;;;;5055744;28;20203;-80
2021/09/19 02:44:16;;;;;;;0.50;0.40;;;12.40;99.90;;;;;;5055821;28;20193;-80
2021/09/19 02:46:42;;;;;;;0.98;0.98;;;12.50;99.90;;;;;;5058895;28;20628;-80
2021/09/19 02:49:09;;;;;;;0.50;0.40;;;12.60;99.90;;;;;;5058765;28;20680;-79
2021/09/19 02:51:37;;;;;;;0.50;0.40;;;12.60;99.90;;;;;;5058520;28;20629;-79
2021/09/19 02:54:04;;;;;;;0.50;0.40;;;12.60;99.90;;;;;;5059049;28;20195;-79
2021/09/19 02:56:31;;;;;;;0.80;0.80;;;12.70;99.90;;;;;;5058979;28;20194;-80
2021/09/19 02:58:57;;;;;;;0.50;0.40;;;12.70;99.90;;;;;;5059332;28;20224;-79
2021/09/19 03:01:24;;;;;;;0.50;0.40;;;12.70;99.90;;;;;;5058588;28;20199;-79
2021/09/19 03:03:51;;;;;;;0.50;0.40;;;12.70;99.90;;;;;;5058541;28;20537;-80
2021/09/19 03:06:18;;;;;;;0.50;0.40;;;12.70;99.90;;;;;;5058605;28;20221;-79
2021/09/19 03:08:46;;;;;;;0.50;0.40;;;12.60;99.90;;;;;;5059213;28;20729;-79
2021/09/19 03:11:13;;;;;;;0.50;0.40;;;12.60;99.90;;;;;;5057709;28;20206;-80
2021/09/19 03:13:40;;;;;;;0.50;0.40;;;12.60;99.90;;;;;;5059267;28;20200;-80
2021/09/19 03:16:07;;;;;;;0.50;0.40;;;12.60;99.90;;;;;;5058550;28;20199;-80
2021/09/19 03:18:33;;;;;;;0.50;0.50;;;12.60;99.90;;;;;;5058566;28;20273;-80
2021/09/19 03:21:00;;;;;;;0.50;0.40;;;12.60;99.90;;;;;;5058390;28;20974;-80
2021/09/19 03:23:27;;;;;;;0.60;0.60;;;12.60;99.90;;;;;;5058685;28;20188;-80
2021/09/19 03:25:55;;;;;;;0.52;0.43;;;12.50;99.90;;;;;;5059815;28;20198;-80
2021/09/19 03:28:22;;;;;;;0.50;0.40;;;12.60;99.90;;;;;;5058605;28;20225;-79
2021/09/19 03:30:48;;;;;;;0.50;0.30;;;12.60;99.90;;;;;;5058598;28;20205;-79
2021/09/19 03:33:15;;;;;;;0.50;0.50;;;12.50;99.90;;;;;;5058368;28;20676;-80
2021/09/19 03:35:42;;;;;;;0.50;0.40;;;12.60;99.90;;;;;;5059037;28;20677;-80
2021/09/19 03:38:08;;;;;;;0.50;0.40;;;12.50;99.90;;;;;;5058242;28;20590;-80
2021/09/19 03:40:35;;;;;;;0.50;0.40;;;12.60;99.90;;;;;;5058588;28;20201;-80
2021/09/19 03:43:03;;;;;;;0.50;0.40;;;12.60;99.90;;;;;;5059654;28;20197;-81
2021/09/19 03:45:30;;;;;;;0.50;0.40;;;12.60;99.90;;;;;;5059652;28;20669;-79
2021/09/19 03:47:57;;;;;;;0.50;0.40;;;12.60;99.90;;;;;;5057051;28;20306;-79
2021/09/19 03:50:24;;;;;;;0.50;0.40;;;12.70;99.90;;;;;;5057337;28;20254;-80
2021/09/19 03:52:51;;;;;;;0.50;0.40;;;12.60;99.90;;;;;;5057079;28;20207;-80
2021/09/19 03:55:18;;;;;;;0.50;0.40;;;12.60;99.90;;;;;;5057622;28;20543;-80
2021/09/19 03:57:44;;;;;;;0.50;0.40;;;12.60;99.90;;;;;;5057923;28;20218;-80
2021/09/19 04:00:13;;;;;;;0.50;0.40;;;12.60;99.90;;;;;;5056698;28;20556;-79
2021/09/19 04:02:40;;;;;;;0.50;0.40;;;12.50;99.90;;;;;;5057834;28;20202;-80
2021/09/19 04:05:09;;;;;;;0.50;0.40;;;12.60;99.90;;;;;;5057847;28;20198;-79
2021/09/19 04:07:36;;;;;;;0.50;0.40;;;12.50;99.90;;;;;;5057189;28;20260;-81
2021/09/19 04:10:04;;;;;;;0.50;0.40;;;12.40;99.90;;;;;;5058091;28;20224;-77
2021/09/19 04:12:30;;;;;;;0.50;0.40;;;12.30;99.90;;;;;;5057223;28;20541;-80
2021/09/19 04:14:57;;;;;;;0.50;0.40;;;12.30;99.90;;;;;;5058420;28;20206;-79
2021/09/19 04:17:26;;;;;;;0.50;0.50;;;12.20;99.90;;;;;;5057506;28;20215;-80
2021/09/19 04:19:52;;;;;;;0.50;0.40;;;12.20;99.90;;;;;;5056771;28;20662;-81
2021/09/19 04:22:20;;;;;;;0.50;0.40;;;12.10;99.90;;;;;;5049173;28;20201;-80
2021/09/19 04:24:47;;;;;;;0.50;0.40;;;12.10;99.90;;;;;;5056672;28;20205;-80
2021/09/19 04:27:13;;;;;;;0.50;0.40;;;12.00;99.90;;;;;;5056377;28;20206;-80
2021/09/19 04:29:40;;;;;;;1.70;1.60;;;11.90;99.90;;;;;;5056560;28;20212;-80
2021/09/19 04:32:07;;;;;;;0.50;0.40;;;11.90;99.90;;;;;;5057281;28;20201;-77
2021/09/19 04:34:35;;;;;;;0.50;0.40;;;11.90;99.90;;;;;;5056573;28;20196;-79
2021/09/19 04:37:02;;;;;;;0.50;0.40;;;11.90;99.90;;;;;;5056856;28;20661;-77
2021/09/19 04:39:28;;;;;;;0.50;0.40;;;11.90;99.90;;;;;;5056724;28;20200;-80
2021/09/19 04:41:55;;;;;;;0.50;0.40;;;11.90;99.90;;;;;;5056698;28;20202;-80
2021/09/19 04:44:22;;;;;;;0.50;0.40;;;11.70;99.90;;;;;;5057032;28;20189;-80
2021/09/19 04:46:49;;;;;;;0.50;0.40;;;11.70;99.90;;;;;;5056516;28;20598;-79
2021/09/19 04:49:15;;;;;;;0.50;0.40;;;11.70;99.90;;;;;;5055493;28;20217;-80
2021/09/19 04:51:43;;;;;;;0.50;0.40;;;11.70;99.90;;;;;;5056299;28;20688;-80
2021/09/19 04:54:10;;;;;;;0.50;0.40;;;11.70;99.90;;;;;;5056556;28;20211;-78
2021/09/19 04:56:37;;;;;;;0.50;0.40;;;11.60;99.90;;;;;;5056571;28;20251;-80
2021/09/19 04:59:04;;;;;;;0.50;0.40;;;11.60;99.90;;;;;;5055688;28;20709;-78
2021/09/19 05:01:31;;;;;;;0.50;0.40;;;11.70;99.90;;;;;;5055720;28;20698;-80
2021/09/19 05:03:58;;;;;;;0.50;0.40;;;11.70;99.90;;;;;;5056589;28;20198;-80
2021/09/19 05:06:24;;;;;;;0.50;0.40;;;11.70;99.90;;;;;;5056905;28;20218;-79
2021/09/19 05:08:52;;;;;;;0.50;0.40;;;11.60;99.90;;;;;;5054722;28;20270;-80
2021/09/19 05:11:19;;;;;;;0.80;0.80;;;11.60;99.90;;;;;;5055371;28;20205;-79
2021/09/19 05:13:46;;;;;;;0.50;0.40;;;11.60;99.90;;;;;;5055015;28;20205;-78
2021/09/19 05:16:13;;;;;;;1.73;1.63;;;11.60;99.90;;;;;;5054491;28;20200;-78
2021/09/19 05:18:39;;;;;;;0.50;0.40;;;11.60;99.90;;;;;;5054416;28;20225;-78
2021/09/19 05:21:06;;;;;;;0.50;0.38;;;11.60;99.90;;;;;;5052360;28;20204;-77
2021/09/19 05:23:33;;;;;;;0.50;0.40;;;11.60;99.90;;;;;;5053627;28;20183;-78
2021/09/19 05:26:01;;;;;;;0.50;0.40;;;11.60;99.90;;;;;;5054155;28;20246;-77
2021/09/19 05:28:27;;;;;;;0.50;0.40;;;11.60;99.90;;;;;;5054027;28;20225;-77
2021/09/19 05:30:54;;;;;;;0.50;0.40;;;11.60;99.90;;;;;;5053707;28;20221;-78
2021/09/19 05:33:21;;;;;;;0.50;0.40;;;11.60;99.90;;;;;;5053287;28;20204;-78
2021/09/19 05:35:48;;;;;;;0.50;0.40;;;11.70;99.90;;;;;;5053308;28;20206;-78
2021/09/19 05:38:16;;;;;;;0.50;0.40;;;11.70;99.90;;;;;;5053509;28;20229;-80
2021/09/19 05:40:43;;;;;;;0.50;0.40;;;11.70;99.90;;;;;;5054099;28;20223;-78
2021/09/19 05:43:11;;;;;;;0.70;0.65;;;11.70;99.90;;;;;;5052765;28;20202;-78
2021/09/19 05:45:37;;;;;;;0.50;0.40;;;11.70;99.90;;;;;;5053168;28;20625;-78
2021/09/19 05:48:05;;;;;;;0.50;0.40;;;11.70;99.90;;;;;;5052700;28;20221;-77
2021/09/19 05:50:32;;;;;;;0.50;0.40;;;11.80;99.90;;;;;;5053607;28;20228;-78
2021/09/19 05:52:58;;;;;;;0.50;0.40;;;11.90;99.90;;;;;;5053263;28;20198;-78
2021/09/19 05:55:25;;;;;;;0.50;0.40;;;11.90;99.90;;;;;;5053563;28;20202;-78
2021/09/19 05:57:52;;;;;;;0.50;0.40;;;11.90;99.90;;;;;;5054025;28;20232;-79
2021/09/19 06:00:20;;;;;;;0.50;0.40;;;12.00;99.90;;;;;;5053275;28;20568;-78
2021/09/19 06:02:47;;;;;;;0.50;0.40;;;12.00;99.90;;;;;;5052965;28;20607;-79
2021/09/19 06:05:14;;;;;;;0.85;0.85;;;12.10;99.90;;;;;;5053576;28;20224;-76
2021/09/19 06:07:41;;;;;;;0.50;0.40;;;12.20;99.90;;;;;;5052814;28;20628;-76
2021/09/19 06:10:08;;;;;;;0.50;0.40;;;12.30;99.90;;;;;;5050664;28;20630;-77
2021/09/19 06:12:35;;;;;;;0.50;0.40;;;12.30;99.90;;;;;;5051426;28;20569;-76
2021/09/19 06:15:01;;;;;;;0.50;0.40;;;12.50;99.90;;;;;;5051559;28;20205;-75
2021/09/19 06:17:31;;;;;;;0.50;0.40;;;12.60;99.90;;;;;;5051450;28;20615;-76
2021/09/19 06:19:58;;;;;;;0.50;0.38;;;12.70;99.90;;;;;;5053577;28;20288;-77
2021/09/19 06:22:25;;;;;;;1.08;1.08;;;12.80;99.90;;;;;;5054800;28;20556;-76
2021/09/19 06:24:52;;;;;;;0.50;0.40;;;12.90;99.90;;;;;;5054448;28;20194;-76
2021/09/19 06:27:19;;;;;;;0.75;0.75;;;13.00;99.90;;;;;;5054537;28;20259;-76
2021/09/19 06:29:45;;;;;;;0.50;0.30;;;13.10;99.90;;;;;;5055273;28;20207;-75
2021/09/19 06:32:12;;;;;;;0.50;0.40;;;13.20;99.90;;;;;;5054837;28;20191;-76
2021/09/19 06:34:41;;;;;;;0.50;0.30;;;13.30;99.90;;;;;;5055178;28;20195;-78
2021/09/19 06:37:08;;;;;;;0.50;0.40;;;13.40;99.90;;;;;;5054188;28;20203;-75
2021/09/19 06:39:35;;;;;;;0.50;0.40;;;13.60;99.90;;;;;;5054983;28;20433;-78
2021/09/19 06:42:02;;;;;;;0.80;0.80;;;13.70;99.90;;;;;;5054605;28;20942;-77
2021/09/19 06:44:29;;;;;;;0.50;0.40;;;13.80;99.90;;;;;;5054666;28;20958;-76
2021/09/19 06:46:56;;;;;;;0.50;0.40;;;13.90;99.90;;;;;;5055000;28;20444;-78
2021/09/19 06:49:23;;;;;;;0.50;0.40;;;13.90;99.90;;;;;;5054207;28;20257;-76
2021/09/19 06:51:52;;;;;;;1.43;1.33;;;14.00;99.90;;;;;;5054590;28;20207;-77
2021/09/19 06:54:18;;;;;;;0.50;0.40;;;14.00;99.90;;;;;;5054363;28;20822;-75
2021/09/19 06:56:47;;;;;;;0.50;0.40;;;14.10;99.90;;;;;;5055661;28;20441;-78
2021/09/19 06:59:14;;;;;;;0.60;0.60;;;14.20;99.90;;;;;;5054680;28;20457;-76
2021/09/19 07:01:41;;;;;;;0.50;0.50;;;14.30;99.90;;;;;;5054262;28;20448;-76
2021/09/19 07:04:08;;;;;;;2.07;1.97;;;14.50;99.90;;;;;;5054921;28;20444;-77
2021/09/19 07:06:34;;;;;;;0.50;0.40;;;14.90;99.90;;;;;;5054802;28;20442;-78
2021/09/19 07:09:02;;;;;;;0.50;0.40;;;15.10;99.90;;;;;;5054632;28;20488;-78
2021/09/19 07:11:30;;;;;;;0.70;0.70;;;15.10;99.90;;;;;;5054102;28;20442;-76
2021/09/19 07:13:56;;;;;;;0.50;0.40;;;15.20;99.90;;;;;;5053930;28;20943;-75
2021/09/19 07:16:24;;;;;;;0.50;0.40;;;15.20;99.90;;;;;;5054112;28;20855;-77
2021/09/19 07:18:50;;;;;;;0.50;0.40;;;15.20;99.90;;;;;;5054480;28;20469;-76
2021/09/19 07:21:17;;;;;;;0.50;0.40;;;15.30;99.90;;;;;;5053573;28;20449;-77
2021/09/19 07:23:44;;;;;;;0.50;0.40;;;15.20;99.90;;;;;;5053377;28;20525;-77
2021/09/19 07:26:12;;;;;;;0.50;0.30;;;15.30;99.90;;;;;;5053531;28;20965;-76
2021/09/19 07:28:39;;;;;;;0.50;0.30;;;15.20;99.90;;;;;;5053676;28;20480;-76
2021/09/19 07:31:06;;;;;;;0.50;0.30;;;15.30;99.90;;;;;;5052952;28;20862;-77
2021/09/19 07:33:33;;;;;;;0.50;0.33;;;15.30;99.90;;;;;;5053915;28;20441;-76
2021/09/19 07:36:01;;;;;;;0.50;0.40;;;15.40;99.90;;;;;;5053681;28;20437;-76
2021/09/19 07:38:27;;;;;;;0.80;0.80;;;15.50;99.90;;;;;;5054012;28;20475;-77
2021/09/19 07:40:54;;;;;;;1.00;1.00;;;15.60;99.90;;;;;;5053441;28;20513;-78
2021/09/19 07:43:23;;;;;;;0.50;0.30;;;15.60;99.90;;;;;;5053597;28;20456;-76
2021/09/19 07:45:50;;;;;;;0.50;0.40;;;15.60;99.90;;;;;;5053613;28;20445;-78
2021/09/19 07:48:17;;;;;;;0.50;0.30;;;15.60;99.90;;;;;;5053013;28;20461;-75
2021/09/19 07:50:45;;;;;;;0.50;0.40;;;15.70;99.90;;;;;;5052706;28;20856;-76
2021/09/19 07:53:12;;;;;;;0.50;0.40;;;15.90;99.90;;;;;;5053681;28;20453;-76
2021/09/19 07:55:39;;;;;;;0.60;0.57;;;15.90;99.90;;;;;;5053805;28;20807;-76
2021/09/19 07:58:05;;;;;;;1.63;1.30;;;16.00;99.90;;;;;;5053035;28;20461;-77
2021/09/19 08:00:33;;;;;;;0.50;0.40;;;16.20;99.90;;;;;;5053057;28;20441;-76
2021/09/19 08:03:00;;;;;;;0.50;0.40;;;16.20;99.90;;;;;;5053765;28;20441;-77
2021/09/19 08:05:27;;;;;;;0.50;0.40;;;16.40;99.90;;;;;;5053048;28;20441;-76
2021/09/19 08:07:54;;;;;;;0.50;0.40;;;16.60;99.90;;;;;;5056439;28;20467;-76
2021/09/19 08:10:21;;;;;;;0.93;0.77;;;16.80;99.90;;;;;;5052639;28;20476;-77
2021/09/19 08:12:48;;;;;;;0.50;0.30;;;17.00;99.90;;;;;;5053194;28;20446;-76
2021/09/19 08:15:16;;;;;;;0.50;0.30;;;16.90;99.90;;;;;;5052152;28;20449;-75
2021/09/19 08:17:44;;;;;;;0.50;0.40;;;17.00;99.90;;;;;;5052555;28;20468;-76
2021/09/19 08:20:13;;;;;;;0.50;0.30;;;17.10;99.90;;;;;;5052428;28;20438;-75
2021/09/19 08:22:40;;;;;;;0.50;0.40;;;17.10;99.90;;;;;;5052687;28;20436;-76
2021/09/19 08:25:08;;;;;;;0.50;0.40;;;17.20;99.90;;;;;;5052820;28;20776;-76
2021/09/19 08:27:37;;;;;;;0.50;0.30;;;17.30;99.90;;;;;;5043782;28;20462;-76
2021/09/19 08:30:05;;;;;;;0.60;0.40;;;17.60;99.90;;;;;;5049817;28;20470;-76
2021/09/19 08:32:31;;;;;;;0.50;0.40;;;17.90;99.90;;;;;;5047034;28;20434;-76
2021/09/19 08:35:00;;;;;;;0.60;0.50;;;18.10;99.90;;;;;;5044176;28;20444;-77
2021/09/19 08:37:26;;;;;;;0.50;0.30;;;18.20;99.90;;;;;;5051977;28;21043;-76
2021/09/19 08:39:53;;;;;;;0.90;0.83;;;18.30;99.90;;;;;;5052447;28;20522;-76
2021/09/19 08:42:20;;;;;;;0.50;0.30;;;18.50;99.90;;;;;;5052115;28;20477;-77
2021/09/19 08:44:47;;;;;;;0.50;0.30;;;18.80;99.90;;;;;;5052154;28;20545;-77
2021/09/19 08:47:14;;;;;;;0.50;0.30;;;18.90;99.90;;;;;;5051800;28;20786;-77
2021/09/19 08:49:42;;;;;;;0.50;0.40;;;19.10;99.90;;;;;;5052125;28;20839;-77
2021/09/19 08:52:11;;;;;;;0.50;0.30;;;19.30;99.90;;;;;;5051979;28;20438;-76
2021/09/19 08:54:39;;;;;;;0.50;0.30;;;19.40;99.90;;;;;;5052500;28;20489;-78
2021/09/19 08:57:06;;;;;;;0.50;0.40;;;19.60;99.90;;;;;;5054402;28;20959;-77
2021/09/19 08:59:45;;;;;;;0.50;0.40;;;19.70;99.90;;;;;;5063622;28;20440;-77
2021/09/19 09:02:12;;;;;;;0.50;0.40;;;19.70;99.90;;;;;;5072219;28;20437;-75
2021/09/19 09:04:39;;;;;;;0.50;0.40;;;19.60;99.90;;;;;;5071771;28;20511;-78
2021/09/19 09:07:06;;;;;;;0.97;0.97;;;19.80;99.90;;;;;;5071886;28;20511;-77
2021/09/19 09:09:34;;;;;;;0.50;0.30;;;20.00;99.90;;;;;;5072222;28;20809;-78
2021/09/19 09:12:03;;;;;;;0.50;0.40;;;20.20;99.90;;;;;;5072039;28;20505;-78
2021/09/19 09:14:39;;;;;;;0.50;0.30;;;20.60;99.90;;;;;;5072377;28;20445;-78
2021/09/19 09:17:18;;;;;;;1.13;1.13;;;21.30;99.90;;;;;;5071988;28;20424;-76
2021/09/19 09:19:47;;;;;;;0.50;0.30;;;21.90;99.90;;;;;;5071989;28;20482;-78
2021/09/19 09:22:14;;;;;;;0.50;0.30;;;22.10;99.90;;;;;;5051851;28;20445;-78
2021/09/19 09:24:44;;;;;;;0.50;0.40;;;22.30;99.90;;;;;;5051985;28;20449;-78
2021/09/19 09:27:23;;;;;;;0.50;0.40;;;22.50;99.90;;;;;;5051573;28;20445;-77
2021/09/19 09:30:10;;;;;;;0.50;0.30;;;22.50;99.90;;;;;;5051443;28;20542;-79
2021/09/19 09:32:53;;;;;;;0.50;0.40;;;22.90;99.90;;;;;;5052070;28;20445;-78
2021/09/19 09:35:21;;;;;;;0.50;0.40;;;23.20;99.90;;;;;;5051931;28;20445;-77
2021/09/19 09:37:48;;;;;;;0.50;0.40;;;23.30;99.90;;;;;;5051875;28;20978;-78
2021/09/19 09:40:19;;;;;;;0.50;0.30;;;23.20;99.90;;;;;;5051737;28;20437;-78
2021/09/19 09:43:07;;;;;;;0.50;0.37;;;23.30;99.90;;;;;;5051810;28;20429;-77
2021/09/19 09:45:36;;;;;;;0.50;0.30;;;23.20;99.90;;;;;;5051844;28;20437;-77
2021/09/19 09:48:03;;;;;;;0.50;0.40;;;23.20;99.90;;;;;;5051688;28;20485;-76
2021/09/19 09:50:31;;;;;;;0.50;0.30;;;23.20;99.90;;;;;;5050976;28;20475;-77
2021/09/19 09:53:12;;;;;;;0.50;0.40;;;23.30;99.90;;;;;;5051901;28;20437;-77
2021/09/19 09:55:46;;;;;;;0.50;0.30;;;23.30;99.90;;;;;;5056375;28;20516;-78
2021/09/19 09:58:18;;;;;;;1.57;1.50;;;23.40;99.90;;;;;;5056037;28;20490;-77
2021/09/19 10:00:45;;;;;;;0.50;0.40;;;23.30;99.90;;;;;;5057364;28;20440;-83
2021/09/19 10:03:12;;;;;;;0.50;0.40;;;22.90;99.90;;;;;;5057670;28;20948;-78
2021/09/19 10:05:40;;;;;;;0.50;0.40;;;22.50;99.90;;;;;;5066037;28;20449;-78
2021/09/19 10:08:07;;;;;;;0.50;0.40;;;22.30;99.90;;;;;;5057495;28;20989;-80
2021/09/19 10:10:39;;;;;;;0.50;0.30;;;22.20;99.90;;;;;;5058226;28;20563;-80
2021/09/19 10:13:07;;;;;;;0.50;0.37;;;22.10;99.90;;;;;;5062592;28;20424;-80
2021/09/19 10:15:34;;;;;;;0.50;0.30;;;22.10;99.90;;;;;;5061326;28;20444;-80
2021/09/19 10:18:01;;;;;;;0.50;0.40;;;22.10;99.90;;;;;;5059267;28;20471;-81
2021/09/19 10:20:30;;;;;;;0.50;0.33;;;22.00;99.90;;;;;;5060312;28;20930;-81
2021/09/19 10:23:04;;;;;;;0.50;0.40;;;21.90;99.90;;;;;;5059786;28;20448;-80
2021/09/19 10:25:43;;;;;;;0.50;0.40;;;22.00;99.90;;;;;;5060947;28;20421;-80
2021/09/19 10:28:38;;;;;;;0.50;0.40;;;21.90;99.90;;;;;;5060983;28;20468;-80
2021/09/19 10:31:28;;;;;;;0.50;0.30;;;21.80;99.90;;;;;;5060013;28;20468;-80
2021/09/19 10:33:57;;;;;;;0.50;0.30;;;21.90;99.90;;;;;;5062961;28;20516;-80
2021/09/19 10:36:29;;;;;;;0.50;0.40;;;21.90;99.90;;;;;;5071392;28;20439;-80
2021/09/19 10:39:22;;;;;;;0.60;0.50;;;22.20;99.90;;;;;;5065170;28;20470;-80
2021/09/19 10:42:28;;;;;;;0.50;0.30;;;22.20;99.90;;;;;;5064129;28;20437;-80
2021/09/19 10:45:11;;;;;;;0.50;0.40;;;22.10;99.90;;;;;;5073917;28;20445;-81
2021/09/19 10:47:41;;;;;;;0.50;0.30;;;22.00;99.90;;;;;;5081830;28;20464;-81
2021/09/19 10:50:27;;;;;;;0.50;0.40;;;22.20;99.90;;;;;;5079784;28;20476;-77
2021/09/19 10:52:56;;;;;;;1.07;1.07;;;22.50;99.90;;;;;;5078498;28;20421;-78
2021/09/19 10:55:26;;;;;;;1.50;0.40;;;22.50;99.90;;;;;;5038331;28;20444;-80
2021/09/19 10:57:55;;;;;;;0.50;0.30;;;22.50;99.90;;;;;;5049394;28;20462;-80
2021/09/19 11:00:24;;;;;;;0.50;0.30;;;22.40;99.90;;;;;;5071141;28;20429;-80
2021/09/19 11:03:02;;;;;;;0.50;0.30;;;22.50;99.90;;;;;;5080387;28;20437;-80
2021/09/19 11:05:31;;;;;;;0.50;0.37;;;22.80;99.90;;;;;;5060800;28;20453;-79
2021/09/19 11:08:40;;;;;;;0.60;0.60;;;23.10;99.90;;;;;;5059799;28;20458;-79
2021/09/19 11:11:25;;;;;;;0.50;0.40;;;23.40;99.90;;;;;;5029273;28;20571;-81
2021/09/19 11:14:11;;;;;;;0.50;0.30;;;23.80;99.90;;;;;;5061163;28;20441;-81
2021/09/19 11:16:42;;;;;;;0.50;0.30;;;24.20;99.90;;;;;;5060499;28;20434;-80
2021/09/19 11:19:12;;;;;;;0.60;0.60;;;24.10;99.90;;;;;;5060117;28;20463;-80
2021/09/19 11:21:46;;;;;;;0.50;0.33;;;23.60;99.90;;;;;;5059159;28;20446;-80
2021/09/19 11:24:19;;;;;;;0.50;0.30;;;23.10;99.90;;;;;;5051990;28;20459;-81
2021/09/19 11:26:48;;;;;;;0.50;0.30;;;23.00;99.90;;;;;;5059498;28;20473;-80
2021/09/19 11:29:16;;;;;;;0.90;0.90;;;23.10;99.90;;;;;;5058532;28;20467;-80
2021/09/19 11:31:47;;;;;;;0.50;0.30;;;23.00;99.90;;;;;;5058566;28;20488;-81
2021/09/19 11:34:15;;;;;;;0.80;0.57;;;23.00;99.90;;;;;;5059607;28;20433;-79
2021/09/19 11:36:44;;;;;;;0.50;0.30;;;23.20;99.90;;;;;;5058660;28;20445;-80
2021/09/19 11:39:11;;;;;;;0.50;0.40;;;23.20;99.90;;;;;;5059225;28;20466;-80
2021/09/19 11:41:38;;;;;;;1.20;0.87;;;23.10;99.90;;;;;;5058526;28;20452;-80
2021/09/19 11:44:05;;;;;;;0.50;0.30;;;23.10;99.90;;;;;;5058692;28;20496;-81
2021/09/19 11:46:34;;;;;;;0.50;0.30;;;23.20;99.90;;;;;;5059676;28;20449;-79
2021/09/19 11:49:04;;;;;;;0.50;0.30;;;23.20;99.90;;;;;;5058603;28;20826;-80
2021/09/19 11:51:30;;;;;;;1.17;0.93;;;23.10;99.90;;;;;;5058750;28;20483;-79
2021/09/19 11:53:58;;;;;;;0.50;0.30;;;22.80;99.90;;;;;;5058517;28;20930;-80
2021/09/19 11:56:26;;;;;;;0.50;0.30;;;22.40;99.90;;;;;;5065266;28;20866;-80
2021/09/19 11:58:54;;;;;;;0.50;0.30;;;22.20;99.90;;;;;;5056925;28;20457;-80
2021/09/19 12:01:24;;;;;;;0.50;0.40;;;22.20;99.90;;;;;;5057826;28;20441;-80
2021/09/19 12:03:51;;;;;;;0.50;0.30;;;22.00;99.90;;;;;;5058664;28;20426;-80
2021/09/19 12:06:20;;;;;;;0.50;0.30;;;22.00;99.90;;;;;;5058823;28;20464;-77
2021/09/19 12:08:46;;;;;;;0.50;0.30;;;21.90;99.90;;;;;;5058228;28;20453;-80
2021/09/19 12:11:13;;;;;;;0.67;0.67;;;21.90;99.90;;;;;;5056138;28;20483;-79
2021/09/19 12:13:46;;;;;;;0.50;0.30;;;22.10;99.90;;;;;;5056738;28;20441;-80
2021/09/19 12:16:16;;;;;;;0.50;0.40;;;22.10;99.90;;;;;;5056414;28;20445;-79
2021/09/19 12:18:45;;;;;;;0.50;0.30;;;22.10;99.90;;;;;;5056453;28;20824;-80
2021/09/19 12:21:14;;;;;;;0.50;0.40;;;22.20;99.90;;;;;;5056220;28;20492;-78
2021/09/19 12:23:44;;;;;;;0.50;0.30;;;22.40;99.90;;;;;;5056829;28;20878;-80
2021/09/19 12:26:17;;;;;;;0.50;0.30;;;22.40;99.90;;;;;;5059233;28;20454;-79
2021/09/19 12:28:44;;;;;;;0.50;0.40;;;22.40;99.90;;;;;;5058775;28;20496;-80
2021/09/19 12:31:12;;;;;;;0.50;0.30;;;22.40;99.90;;;;;;5057914;28;20482;-77
2021/09/19 12:33:53;;;;;;;0.50;0.30;;;22.30;99.90;;;;;;5058399;28;20449;-80
2021/09/19 12:36:21;;;;;;;0.50;0.30;;;22.00;99.90;;;;;;5058309;28;20441;-80
2021/09/19 12:38:49;;;;;;;1.17;1.07;;;21.80;99.90;;;;;;5057881;28;20814;-80
2021/09/19 12:41:17;;;;;;;0.50;0.30;;;21.60;99.90;;;;;;5056956;28;20440;-79
2021/09/19 12:43:45;;;;;;;0.50;0.30;;;21.40;99.90;;;;;;5057832;28;20445;-79
2021/09/19 12:46:14;;;;;;;0.50;0.40;;;21.40;99.90;;;;;;5057367;28;20444;-79
2021/09/19 12:48:41;;;;;;;0.50;0.30;;;21.50;99.90;;;;;;5057796;28;20597;-80
2021/09/19 12:51:10;;;;;;;0.50;0.30;;;21.70;99.90;;;;;;5057563;28;20480;-80
2021/09/19 12:53:37;;;;;;;0.50;0.40;;;21.90;99.90;;;;;;5057734;28;20519;-80
2021/09/19 12:56:06;;;;;;;0.50;0.30;;;21.70;99.90;;;;;;5056983;28;20481;-79